Time;durP1;ratioP1;P1;durP2;ratioP2;P2;SDS_P1;SDS_P2;PMS_P1;PMS_P2;Temp;Humidity;BMP_temperature;BMP_pressure;BME280_temperature;BME280_humidity;BME280_pressure;Samples;Min_cycle;Max_cycle;Signal;HPM_P1;HPM_P2
2022/07/17 00:02:15;;;;;;;3.17;1.05;;;10.00;99.90;;;;;;5072341;28;20060;-73
2022/07/17 00:04:40;;;;;;;2.45;1.00;;;9.90;99.90;;;;;;5072794;28;20485;-74
2022/07/17 00:07:06;;;;;;;2.75;1.00;;;9.90;99.90;;;;;;5072970;28;20044;-73
2022/07/17 00:09:32;;;;;;;2.72;1.08;;;9.80;99.90;;;;;;5072011;28;20044;-73
2022/07/17 00:11:57;;;;;;;2.53;1.10;;;9.80;99.90;;;;;;5076362;28;20094;-73
2022/07/17 00:14:23;;;;;;;1.98;0.80;;;9.80;99.90;;;;;;5077199;28;20044;-73
2022/07/17 00:16:49;;;;;;;2.55;1.00;;;9.70;99.90;;;;;;5075677;28;20044;-73
2022/07/17 00:19:15;;;;;;;3.08;0.95;;;9.70;99.90;;;;;;5076813;28;20132;-73
2022/07/17 00:21:42;;;;;;;3.00;0.95;;;9.60;99.90;;;;;;5077231;28;20056;-73
2022/07/17 00:24:08;;;;;;;3.47;1.00;;;9.60;99.90;;;;;;5076645;28;20049;-73
2022/07/17 00:26:34;;;;;;;2.72;0.88;;;9.60;99.90;;;;;;5076735;28;20131;-73
2022/07/17 00:29:01;;;;;;;1.95;0.90;;;9.50;99.90;;;;;;5076645;28;20445;-73
2022/07/17 00:31:27;;;;;;;2.35;0.70;;;9.50;99.90;;;;;;5076616;28;20131;-73
2022/07/17 00:33:52;;;;;;;2.35;0.75;;;9.40;99.90;;;;;;5076531;28;20151;-73
2022/07/17 00:36:18;;;;;;;2.15;0.80;;;9.30;99.90;;;;;;5076927;28;20068;-73
2022/07/17 00:38:44;;;;;;;0.93;0.50;;;9.30;99.90;;;;;;5076463;28;20075;-73
2022/07/17 00:41:09;;;;;;;1.77;0.90;;;9.20;99.90;;;;;;5076079;28;20049;-74
2022/07/17 00:43:35;;;;;;;1.40;0.85;;;9.20;99.90;;;;;;5075652;28;20049;-73
2022/07/17 00:46:03;;;;;;;1.60;0.77;;;9.00;99.90;;;;;;5076511;28;20101;-73
2022/07/17 00:48:28;;;;;;;4.50;0.95;;;9.00;99.90;;;;;;5075251;28;20109;-73
2022/07/17 00:50:55;;;;;;;1.88;0.80;;;8.80;99.90;;;;;;5075907;28;20489;-73
2022/07/17 00:53:21;;;;;;;2.45;0.90;;;8.80;99.90;;;;;;5076848;28;20423;-73
2022/07/17 00:55:47;;;;;;;1.98;0.88;;;8.70;99.90;;;;;;5076035;28;20127;-73
2022/07/17 00:58:19;;;;;;;1.30;0.70;;;8.70;99.90;;;;;;5075061;28;20050;-73
2022/07/17 01:00:45;;;;;;;1.60;0.70;;;8.60;99.90;;;;;;5076101;28;20220;-73
2022/07/17 01:03:11;;;;;;;2.33;0.88;;;8.60;99.90;;;;;;5076015;28;20048;-73
2022/07/17 01:05:37;;;;;;;1.48;0.80;;;8.70;99.90;;;;;;5076500;28;20074;-73
2022/07/17 01:08:03;;;;;;;1.90;1.25;;;8.70;99.90;;;;;;5075178;28;20056;-73
2022/07/17 01:10:29;;;;;;;1.70;0.82;;;8.70;99.90;;;;;;5075889;28;20052;-73
2022/07/17 01:12:54;;;;;;;2.10;0.90;;;8.60;99.90;;;;;;5074849;28;20118;-73
2022/07/17 01:15:20;;;;;;;2.42;1.35;;;8.60;99.90;;;;;;5058121;28;20050;-73
2022/07/17 01:17:47;;;;;;;1.88;0.93;;;8.60;99.90;;;;;;5075536;28;20069;-73
2022/07/17 01:20:13;;;;;;;2.05;0.80;;;8.60;99.90;;;;;;5075800;28;20110;-73
2022/07/17 01:22:48;;;;;;;1.60;0.90;;;8.60;99.90;;;;;;5074791;28;20168;-73
2022/07/17 01:25:15;;;;;;;1.70;0.93;;;8.60;99.90;;;;;;5075632;28;20051;-73
2022/07/17 01:27:41;;;;;;;3.72;1.13;;;8.60;99.90;;;;;;5075817;28;20044;-73
2022/07/17 01:30:08;;;;;;;2.38;1.20;;;8.60;99.90;;;;;;5075462;28;20550;-73
2022/07/17 01:32:36;;;;;;;2.45;1.08;;;8.60;99.90;;;;;;5075373;28;20097;-73
2022/07/17 01:35:03;;;;;;;2.83;1.13;;;8.60;99.90;;;;;;5074450;28;20056;-73
2022/07/17 01:37:29;;;;;;;3.03;0.90;;;8.60;99.90;;;;;;5075269;28;20051;-73
2022/07/17 01:39:55;;;;;;;2.35;0.90;;;8.50;99.90;;;;;;5075359;28;20048;-72
2022/07/17 01:42:22;;;;;;;2.83;1.02;;;8.50;99.90;;;;;;5076064;28;20075;-73
2022/07/17 01:44:48;;;;;;;1.95;1.10;;;8.40;99.90;;;;;;5075721;28;20362;-74
2022/07/17 01:47:15;;;;;;;1.92;1.00;;;8.40;99.90;;;;;;5075179;28;20046;-73
2022/07/17 01:49:45;;;;;;;2.30;1.02;;;8.40;99.90;;;;;;5074995;28;20056;-73
2022/07/17 01:52:11;;;;;;;2.40;1.00;;;8.40;99.90;;;;;;5075814;28;20051;-73
2022/07/17 01:54:37;;;;;;;2.45;1.20;;;8.60;99.90;;;;;;5074883;28;20041;-73
2022/07/17 01:57:03;;;;;;;2.33;1.17;;;8.40;99.90;;;;;;5073731;28;20123;-73
2022/07/17 01:59:28;;;;;;;2.08;1.20;;;8.40;99.90;;;;;;5074734;28;20043;-73
2022/07/17 02:01:54;;;;;;;4.43;1.10;;;8.40;99.90;;;;;;5075474;28;20461;-73
2022/07/17 02:04:20;;;;;;;2.13;1.10;;;8.40;99.90;;;;;;5074068;28;20084;-73
2022/07/17 02:06:45;;;;;;;3.22;1.25;;;8.40;99.90;;;;;;5074795;28;20040;-73
2022/07/17 02:09:11;;;;;;;2.00;1.00;;;8.50;99.90;;;;;;5074802;28;20095;-73
2022/07/17 02:11:37;;;;;;;4.38;1.20;;;8.40;99.90;;;;;;5074985;28;20067;-74
2022/07/17 02:14:03;;;;;;;2.60;1.55;;;8.40;99.90;;;;;;5073700;28;20492;-73
2022/07/17 02:16:28;;;;;;;2.80;1.38;;;8.40;99.90;;;;;;5074968;28;20358;-73
2022/07/17 02:18:54;;;;;;;1.70;1.05;;;8.40;99.90;;;;;;5073536;28;20137;-73
2022/07/17 02:21:20;;;;;;;3.33;1.42;;;8.40;99.90;;;;;;5074971;28;20533;-73
2022/07/17 02:23:45;;;;;;;2.95;1.20;;;8.30;99.90;;;;;;5072829;28;20397;-73
2022/07/17 02:26:11;;;;;;;2.17;0.95;;;8.20;99.90;;;;;;5074447;28;20041;-73
2022/07/17 02:28:37;;;;;;;4.65;1.63;;;8.30;99.90;;;;;;5073158;28;20090;-73
2022/07/17 02:31:02;;;;;;;2.22;1.40;;;8.20;99.90;;;;;;5074281;28;20049;-73
2022/07/17 02:33:28;;;;;;;3.95;1.27;;;8.30;99.90;;;;;;5073325;28;20132;-73
2022/07/17 02:35:54;;;;;;;2.30;1.30;;;8.30;99.90;;;;;;5073411;28;20123;-73
2022/07/17 02:38:19;;;;;;;2.50;1.20;;;8.30;99.90;;;;;;5074157;28;20135;-73
2022/07/17 02:40:45;;;;;;;2.30;1.27;;;8.40;99.90;;;;;;5074200;28;20092;-73
2022/07/17 02:43:11;;;;;;;2.42;1.10;;;8.40;99.90;;;;;;5073963;28;20098;-73
2022/07/17 02:45:37;;;;;;;2.10;1.10;;;8.50;99.90;;;;;;5073955;28;20052;-73
2022/07/17 02:48:02;;;;;;;4.55;1.17;;;8.40;99.90;;;;;;5074262;28;20127;-73
2022/07/17 02:50:28;;;;;;;2.28;1.10;;;8.30;99.90;;;;;;5073932;28;20048;-73
2022/07/17 02:52:54;;;;;;;3.05;1.05;;;8.20;99.90;;;;;;5073762;28;20106;-73
2022/07/17 02:55:20;;;;;;;2.53;1.25;;;8.20;99.90;;;;;;5072695;28;20048;-73
2022/07/17 02:57:48;;;;;;;1.80;1.05;;;8.10;99.90;;;;;;5073931;28;20367;-73
2022/07/17 03:00:16;;;;;;;3.30;1.50;;;8.00;99.90;;;;;;5072535;28;20426;-73
2022/07/17 03:02:43;;;;;;;3.42;1.20;;;8.00;99.90;;;;;;5073498;28;20060;-73
2022/07/17 03:05:09;;;;;;;1.98;1.00;;;8.00;99.90;;;;;;5073434;28;20496;-73
2022/07/17 03:07:35;;;;;;;2.55;1.10;;;8.10;99.90;;;;;;5073595;28;20521;-73
2022/07/17 03:10:01;;;;;;;2.65;1.15;;;8.00;99.90;;;;;;5073571;28;20177;-73
2022/07/17 03:12:27;;;;;;;2.20;1.20;;;7.80;99.90;;;;;;5072631;28;20393;-73
2022/07/17 03:14:53;;;;;;;2.42;1.20;;;7.70;99.90;;;;;;5073555;28;20123;-73
2022/07/17 03:17:18;;;;;;;2.47;1.35;;;7.70;99.90;;;;;;5072526;28;20132;-74
2022/07/17 03:19:44;;;;;;;2.47;1.10;;;7.80;99.90;;;;;;5073697;28;20381;-74
2022/07/17 03:22:10;;;;;;;2.42;1.15;;;7.80;99.90;;;;;;5073171;28;20044;-73
2022/07/17 03:24:35;;;;;;;2.97;1.25;;;7.90;99.90;;;;;;5072207;28;20130;-74
2022/07/17 03:27:01;;;;;;;3.08;1.13;;;7.90;99.90;;;;;;5072884;28;20557;-73
2022/07/17 03:29:27;;;;;;;2.58;1.00;;;7.90;99.90;;;;;;5072289;28;20420;-73
2022/07/17 03:31:53;;;;;;;3.15;1.20;;;7.90;99.90;;;;;;5073292;28;20087;-73
2022/07/17 03:34:18;;;;;;;2.80;1.08;;;8.00;99.90;;;;;;5072317;28;20044;-74
2022/07/17 03:36:44;;;;;;;2.55;1.05;;;8.00;99.90;;;;;;5071745;28;20044;-73
2022/07/17 03:39:10;;;;;;;2.00;1.10;;;7.90;99.90;;;;;;5073521;28;20050;-73
2022/07/17 03:41:36;;;;;;;2.83;1.10;;;7.90;99.90;;;;;;5073297;28;20439;-73
2022/07/17 03:44:01;;;;;;;1.70;1.00;;;7.90;99.90;;;;;;5073611;28;20370;-74
2022/07/17 03:46:27;;;;;;;3.15;1.55;;;7.80;99.90;;;;;;5073244;28;20036;-73
2022/07/17 03:48:53;;;;;;;2.15;1.20;;;7.70;99.90;;;;;;5072166;28;20048;-73
2022/07/17 03:51:19;;;;;;;3.05;1.30;;;7.70;99.90;;;;;;5072447;28;20045;-73
2022/07/17 03:53:44;;;;;;;1.70;1.08;;;7.70;99.90;;;;;;5072075;28;20147;-73
2022/07/17 03:56:10;;;;;;;3.05;1.48;;;7.70;99.90;;;;;;5072774;28;20045;-73
2022/07/17 03:58:36;;;;;;;2.38;1.13;;;7.70;99.90;;;;;;5073111;28;20477;-73
2022/07/17 04:01:02;;;;;;;2.58;1.30;;;7.70;99.90;;;;;;5071846;28;20098;-73
2022/07/17 04:03:28;;;;;;;3.50;1.30;;;7.70;99.90;;;;;;5073605;28;20051;-73
2022/07/17 04:05:53;;;;;;;2.88;1.30;;;7.80;99.90;;;;;;5072937;28;20036;-73
2022/07/17 04:08:19;;;;;;;1.52;1.02;;;7.90;99.90;;;;;;5055629;28;20052;-73
2022/07/17 04:10:45;;;;;;;1.63;0.98;;;7.70;99.90;;;;;;5073516;28;20512;-73
2022/07/17 04:13:11;;;;;;;3.08;1.15;;;7.70;99.90;;;;;;5072201;28;20126;-73
2022/07/17 04:15:49;;;;;;;1.90;1.05;;;7.60;99.90;;;;;;5072625;28;20049;-73
2022/07/17 04:18:32;;;;;;;2.50;1.30;;;7.60;99.90;;;;;;5073165;28;20393;-73
2022/07/17 04:21:09;;;;;;;2.88;1.55;;;7.50;99.90;;;;;;5072979;28;20111;-73
2022/07/17 04:23:35;;;;;;;2.00;1.17;;;7.60;99.90;;;;;;5073147;28;20044;-73
2022/07/17 04:26:01;;;;;;;1.80;1.10;;;7.60;99.90;;;;;;5055129;28;20040;-73
2022/07/17 04:28:27;;;;;;;2.88;1.30;;;7.70;99.90;;;;;;5072765;28;20094;-73
2022/07/17 04:30:53;;;;;;;2.50;1.10;;;7.70;99.90;;;;;;5072850;28;20044;-73
2022/07/17 04:33:18;;;;;;;2.35;1.30;;;7.90;99.90;;;;;;5072970;28;20044;-73
2022/07/17 04:35:44;;;;;;;2.30;1.20;;;7.90;99.90;;;;;;5072624;28;20056;-73
2022/07/17 04:38:10;;;;;;;2.78;1.27;;;7.90;99.90;;;;;;5071723;28;20052;-73
2022/07/17 04:40:37;;;;;;;3.33;1.25;;;8.00;99.90;;;;;;5072632;28;20045;-73
2022/07/17 04:43:05;;;;;;;2.17;1.35;;;8.20;99.90;;;;;;5072433;28;20053;-73
2022/07/17 04:45:31;;;;;;;2.55;1.50;;;8.20;99.90;;;;;;5072840;28;20048;-73
2022/07/17 04:47:56;;;;;;;2.65;1.77;;;8.30;99.90;;;;;;5072841;28;20080;-74
2022/07/17 04:50:22;;;;;;;3.13;1.50;;;8.50;99.90;;;;;;5072404;28;20558;-73
2022/07/17 04:52:48;;;;;;;2.83;1.42;;;8.90;99.90;;;;;;5072533;28;20049;-73
2022/07/17 04:55:14;;;;;;;3.92;1.70;;;8.80;99.90;;;;;;5072513;28;20473;-73
2022/07/17 04:57:40;;;;;;;2.45;1.30;;;9.00;99.90;;;;;;5075120;28;20041;-73
2022/07/17 05:00:07;;;;;;;2.65;1.20;;;9.10;99.90;;;;;;5076367;28;20071;-73
2022/07/17 05:02:33;;;;;;;2.35;1.40;;;9.30;99.90;;;;;;5075891;28;20132;-73
2022/07/17 05:05:00;;;;;;;2.33;1.50;;;9.80;99.90;;;;;;5058680;28;20060;-73
2022/07/17 05:07:26;;;;;;;2.63;1.38;;;9.50;99.90;;;;;;5076668;28;20045;-73
2022/07/17 05:09:52;;;;;;;3.85;1.40;;;9.60;99.90;;;;;;5075879;28;20051;-73
2022/07/17 05:12:18;;;;;;;3.28;1.80;;;9.70;99.90;;;;;;5058185;28;20044;-73
2022/07/17 05:14:44;;;;;;;2.95;1.52;;;9.70;99.90;;;;;;5075777;28;20051;-73
2022/07/17 05:17:09;;;;;;;3.95;1.60;;;9.80;99.90;;;;;;5074514;28;20079;-73
2022/07/17 05:19:35;;;;;;;2.90;1.40;;;9.90;99.90;;;;;;5075703;28;20049;-73
2022/07/17 05:22:04;;;;;;;4.82;1.60;;;10.00;99.90;;;;;;5075557;28;20048;-73
2022/07/17 05:24:30;;;;;;;3.72;1.63;;;10.20;99.90;;;;;;5076439;28;20373;-73
2022/07/17 05:26:56;;;;;;;2.97;1.50;;;10.30;99.90;;;;;;5074676;28;20033;-73
2022/07/17 05:29:22;;;;;;;3.75;1.77;;;10.50;99.90;;;;;;5074542;28;20502;-73
2022/07/17 05:31:48;;;;;;;3.33;1.50;;;10.60;99.90;;;;;;5075486;28;20056;-73
2022/07/17 05:34:14;;;;;;;3.63;1.80;;;10.70;99.90;;;;;;5074703;28;20040;-72
2022/07/17 05:36:39;;;;;;;2.60;1.83;;;10.80;99.90;;;;;;5074300;28;20043;-73
2022/07/17 05:39:05;;;;;;;2.83;1.67;;;11.00;99.90;;;;;;5075405;28;20044;-73
2022/07/17 05:41:31;;;;;;;3.53;1.63;;;11.10;99.90;;;;;;5075344;28;20076;-72
2022/07/17 05:43:56;;;;;;;3.80;1.70;;;11.20;99.90;;;;;;5075908;28;20088;-73
2022/07/17 05:46:22;;;;;;;4.78;1.77;;;11.30;99.90;;;;;;5075177;28;20153;-74
2022/07/17 05:48:48;;;;;;;3.63;1.50;;;11.50;99.90;;;;;;5075432;28;20052;-73
2022/07/17 05:51:13;;;;;;;3.15;1.50;;;11.60;99.90;;;;;;5074368;28;20045;-73
2022/07/17 05:53:39;;;;;;;4.72;1.50;;;11.70;99.90;;;;;;5073806;28;20128;-73
2022/07/17 05:56:05;;;;;;;2.70;1.48;;;11.80;99.90;;;;;;5074860;28;20092;-73
2022/07/17 05:58:31;;;;;;;2.80;1.50;;;11.90;99.90;;;;;;5091673;28;20040;-73
2022/07/17 06:00:57;;;;;;;4.72;1.35;;;12.00;99.90;;;;;;5074528;28;20113;-73
2022/07/17 06:03:22;;;;;;;2.58;1.08;;;12.10;99.90;;;;;;5057270;28;20056;-73
2022/07/17 06:05:48;;;;;;;1.70;0.95;;;12.20;99.90;;;;;;5075144;28;20440;-73
2022/07/17 06:08:14;;;;;;;2.60;1.30;;;12.30;99.90;;;;;;5074263;28;20127;-73
2022/07/17 06:10:40;;;;;;;3.42;1.35;;;12.40;99.90;;;;;;5075521;28;20101;-73
2022/07/17 06:13:05;;;;;;;3.72;1.30;;;12.40;99.90;;;;;;5074751;28;20087;-73
2022/07/17 06:15:31;;;;;;;4.60;1.40;;;12.50;99.90;;;;;;5074962;28;20443;-73
2022/07/17 06:18:01;;;;;;;2.67;1.33;;;12.50;99.90;;;;;;5074506;28;20181;-73
2022/07/17 06:20:27;;;;;;;3.47;1.30;;;12.60;99.90;;;;;;5074513;28;20055;-73
2022/07/17 06:22:53;;;;;;;2.55;1.13;;;12.70;99.90;;;;;;5074294;28;20449;-73
2022/07/17 06:25:18;;;;;;;2.63;1.10;;;12.70;99.90;;;;;;5073446;28;20055;-73
2022/07/17 06:27:44;;;;;;;3.25;1.38;;;12.70;99.90;;;;;;5073980;28;20044;-73
2022/07/17 06:30:12;;;;;;;3.35;1.20;;;12.80;99.90;;;;;;5073615;28;20049;-73
2022/07/17 06:32:37;;;;;;;2.50;1.13;;;12.90;99.90;;;;;;5074106;28;20373;-73
2022/07/17 06:35:03;;;;;;;2.53;1.20;;;12.90;99.90;;;;;;5074328;28;20051;-73
2022/07/17 06:37:29;;;;;;;2.20;1.10;;;13.10;99.90;;;;;;5072912;28;20118;-73
2022/07/17 06:39:55;;;;;;;3.53;1.02;;;13.30;99.90;;;;;;5074603;28;20056;-73
2022/07/17 06:42:21;;;;;;;3.88;1.40;;;13.50;99.90;;;;;;5074160;28;20064;-73
2022/07/17 06:44:47;;;;;;;3.33;1.00;;;13.60;99.90;;;;;;5074039;28;20443;-73
2022/07/17 06:47:13;;;;;;;1.70;0.82;;;13.80;99.90;;;;;;5072859;28;20049;-73
2022/07/17 06:49:38;;;;;;;2.30;1.05;;;14.00;99.90;;;;;;5072831;28;20136;-73
2022/07/17 06:52:04;;;;;;;3.65;1.15;;;14.10;99.90;;;;;;5072907;28;20044;-73
2022/07/17 06:54:31;;;;;;;3.42;1.00;;;14.30;99.90;;;;;;5073900;28;20040;-66
2022/07/17 06:56:57;;;;;;;6.88;1.00;;;14.40;99.90;;;;;;5073742;28;20040;-67
2022/07/17 06:59:23;;;;;;;2.00;0.88;;;14.50;99.90;;;;;;5073676;28;20056;-66
2022/07/17 07:01:48;;;;;;;4.65;0.90;;;14.70;99.90;;;;;;5072504;28;20078;-67
2022/07/17 07:04:14;;;;;;;2.95;0.82;;;14.80;99.90;;;;;;5073649;28;20470;-66
2022/07/17 07:06:40;;;;;;;2.05;0.93;;;14.90;99.90;;;;;;5073699;28;20048;-66
2022/07/17 07:09:06;;;;;;;2.70;0.93;;;15.00;99.90;;;;;;5072362;28;20474;-67
2022/07/17 07:11:31;;;;;;;2.03;0.88;;;15.10;99.90;;;;;;5073648;28;20045;-70
2022/07/17 07:13:57;;;;;;;3.33;0.82;;;15.30;99.90;;;;;;5073580;28;20045;-67
2022/07/17 07:16:23;;;;;;;3.15;1.00;;;15.40;99.90;;;;;;5072496;28;20347;-66
2022/07/17 07:18:49;;;;;;;3.85;0.80;;;15.50;99.90;;;;;;5073221;28;20047;-66
2022/07/17 07:21:14;;;;;;;2.45;0.70;;;15.60;99.90;;;;;;5073461;28;20095;-66
2022/07/17 07:23:40;;;;;;;3.00;0.90;;;15.70;99.90;;;;;;5073329;28;20040;-67
2022/07/17 07:26:06;;;;;;;1.92;1.00;;;15.80;99.90;;;;;;5073454;28;20473;-66
2022/07/17 07:28:33;;;;;;;3.33;0.98;;;15.90;99.90;;;;;;5073118;28;20049;-67
2022/07/17 07:30:59;;;;;;;2.85;0.80;;;16.10;99.90;;;;;;5073327;28;20052;-66
2022/07/17 07:33:24;;;;;;;2.63;0.90;;;16.10;99.90;;;;;;5072199;28;20134;-66
2022/07/17 07:35:50;;;;;;;3.25;1.00;;;16.10;99.90;;;;;;5073704;28;20108;-66
2022/07/17 07:38:17;;;;;;;3.60;0.93;;;16.10;99.90;;;;;;5073281;28;20131;-66
2022/07/17 07:40:42;;;;;;;3.22;1.00;;;16.10;99.90;;;;;;5072325;28;20056;-66
2022/07/17 07:43:08;;;;;;;3.88;1.00;;;16.10;99.90;;;;;;5073168;28;20048;-66
2022/07/17 07:45:34;;;;;;;2.35;0.85;;;16.10;99.90;;;;;;5055290;28;20059;-66
2022/07/17 07:48:00;;;;;;;5.15;1.02;;;16.10;99.90;;;;;;5071769;28;20445;-65
2022/07/17 07:50:26;;;;;;;2.92;0.80;;;16.10;99.90;;;;;;5073043;28;20040;-65
2022/07/17 07:52:52;;;;;;;2.85;0.88;;;16.10;99.90;;;;;;5073585;28;20045;-66
2022/07/17 07:55:18;;;;;;;3.13;1.25;;;16.20;99.90;;;;;;5073060;28;20036;-66
2022/07/17 07:57:44;;;;;;;2.25;0.90;;;16.30;99.90;;;;;;5072808;28;20074;-67
2022/07/17 08:00:11;;;;;;;2.28;0.80;;;16.20;99.90;;;;;;5072823;28;20147;-66
2022/07/17 08:02:37;;;;;;;4.05;1.17;;;16.20;99.90;;;;;;5073059;28;20135;-66
2022/07/17 08:05:04;;;;;;;3.22;0.80;;;16.30;99.90;;;;;;5072973;28;20132;-66
2022/07/17 08:07:31;;;;;;;3.53;0.95;;;16.40;99.90;;;;;;5072898;28;20044;-66
2022/07/17 08:09:57;;;;;;;2.67;0.75;;;16.50;99.90;;;;;;5073129;28;20446;-66
2022/07/17 08:12:23;;;;;;;3.00;0.80;;;16.60;99.90;;;;;;5072895;28;20135;-66
2022/07/17 08:14:50;;;;;;;3.72;0.93;;;16.60;99.90;;;;;;5071962;28;20087;-66
2022/07/17 08:17:16;;;;;;;4.30;0.90;;;16.70;99.90;;;;;;5073348;28;20405;-66
2022/07/17 08:19:41;;;;;;;2.53;0.93;;;16.80;99.90;;;;;;5072908;28;20044;-66
2022/07/17 08:22:07;;;;;;;3.40;0.85;;;16.80;99.90;;;;;;5073154;28;20059;-65
2022/07/17 08:24:33;;;;;;;2.95;1.02;;;16.80;99.90;;;;;;5073038;28;20106;-67
2022/07/17 08:26:58;;;;;;;3.05;0.95;;;16.80;99.90;;;;;;5072722;28;20145;-66
2022/07/17 08:29:24;;;;;;;2.38;0.88;;;16.80;99.90;;;;;;5073186;28;20450;-66
2022/07/17 08:31:50;;;;;;;3.78;0.90;;;16.80;99.90;;;;;;5073889;28;20244;-66
2022/07/17 08:34:16;;;;;;;3.03;0.90;;;16.80;99.90;;;;;;5077008;28;20051;-66
2022/07/17 08:36:42;;;;;;;2.72;0.82;;;16.80;99.90;;;;;;5076285;28;20462;-66
2022/07/17 08:39:08;;;;;;;3.30;1.13;;;16.90;99.90;;;;;;5076330;28;20044;-66
2022/07/17 08:41:37;;;;;;;1.60;0.90;;;17.00;99.90;;;;;;5076842;28;20040;-66
2022/07/17 08:44:08;;;;;;;2.47;0.80;;;17.00;99.90;;;;;;5076215;28;20451;-66
2022/07/17 08:46:38;;;;;;;2.60;0.90;;;17.10;99.90;;;;;;5075979;28;20047;-66
2022/07/17 08:49:06;;;;;;;2.10;0.70;;;17.20;99.90;;;;;;5076103;28;20397;-66
2022/07/17 08:51:32;;;;;;;4.70;0.93;;;17.30;99.90;;;;;;5075862;28;20470;-66
2022/07/17 08:53:58;;;;;;;2.95;0.95;;;17.30;99.90;;;;;;5076028;28;20095;-66
2022/07/17 08:56:25;;;;;;;3.60;0.90;;;17.40;99.90;;;;;;5076303;28;20040;-66
2022/07/17 08:58:51;;;;;;;1.45;0.68;;;17.50;99.90;;;;;;5074912;28;20044;-66
2022/07/17 09:01:18;;;;;;;1.50;0.70;;;17.50;99.90;;;;;;5075972;28;20053;-66
2022/07/17 09:03:59;;;;;;;3.67;0.85;;;17.70;99.90;;;;;;5075709;28;20560;-66
2022/07/17 09:06:26;;;;;;;2.65;0.80;;;17.80;99.90;;;;;;5076436;28;20117;-66
2022/07/17 09:09:10;;;;;;;1.88;0.90;;;17.90;99.90;;;;;;5074910;28;20453;-67
2022/07/17 09:11:50;;;;;;;1.90;0.70;;;18.10;99.90;;;;;;5075855;28;20044;-67
2022/07/17 09:14:18;;;;;;;2.20;1.10;;;18.10;99.90;;;;;;5075810;28;20044;-67
2022/07/17 09:16:55;;;;;;;2.58;0.90;;;18.10;99.90;;;;;;5075588;28;20080;-66
2022/07/17 09:19:45;;;;;;;2.78;0.82;;;18.20;99.90;;;;;;5076188;28;20123;-66
2022/07/17 09:22:18;;;;;;;2.13;0.80;;;18.20;99.90;;;;;;5072448;28;20061;-67
2022/07/17 09:24:55;;;;;;;2.88;0.80;;;18.30;99.90;;;;;;5076178;28;20044;-67
2022/07/17 09:27:24;;;;;;;2.67;1.02;;;18.50;99.90;;;;;;5075818;28;20056;-67
2022/07/17 09:29:57;;;;;;;2.65;1.00;;;18.50;99.90;;;;;;5075213;28;20041;-67
2022/07/17 09:32:25;;;;;;;2.72;0.93;;;18.60;99.90;;;;;;5075495;28;20052;-67
2022/07/17 09:34:53;;;;;;;5.03;1.00;;;18.60;99.90;;;;;;5074704;28;20113;-68
2022/07/17 09:37:22;;;;;;;1.92;0.68;;;18.70;99.90;;;;;;5075205;28;20100;-67
2022/07/17 09:39:49;;;;;;;2.20;0.90;;;18.70;99.90;;;;;;5075806;28;20051;-66
2022/07/17 09:42:29;;;;;;;2.35;0.82;;;18.70;99.90;;;;;;5075572;28;20054;-66
2022/07/17 09:44:59;;;;;;;3.17;0.80;;;18.70;99.90;;;;;;5075184;28;20124;-67
2022/07/17 09:47:26;;;;;;;2.53;0.70;;;18.60;99.90;;;;;;5074328;28;20090;-66
2022/07/17 09:49:56;;;;;;;3.60;0.90;;;18.60;99.90;;;;;;5075118;28;20045;-66
2022/07/17 09:52:24;;;;;;;1.75;0.80;;;18.70;99.90;;;;;;5074932;28;20051;-66
2022/07/17 09:54:53;;;;;;;4.15;0.93;;;18.80;99.90;;;;;;5075015;28;20057;-66
2022/07/17 09:57:20;;;;;;;3.38;0.88;;;18.90;99.90;;;;;;5075580;28;20044;-66
2022/07/17 09:59:46;;;;;;;2.22;0.75;;;18.90;99.90;;;;;;5074713;28;20063;-66
2022/07/17 10:02:13;;;;;;;2.88;1.23;;;18.90;99.90;;;;;;5074288;28;20080;-66
2022/07/17 10:04:40;;;;;;;2.65;0.90;;;19.00;99.90;;;;;;5074861;28;20114;-67
2022/07/17 10:07:08;;;;;;;2.38;1.05;;;19.00;99.90;;;;;;5073610;28;20401;-68
2022/07/17 10:09:35;;;;;;;3.38;1.00;;;19.00;99.90;;;;;;5073754;28;20087;-66
2022/07/17 10:12:01;;;;;;;2.65;0.80;;;19.00;99.90;;;;;;5074717;28;20052;-67
2022/07/17 10:14:27;;;;;;;3.15;0.88;;;19.00;99.90;;;;;;5073302;28;20056;-69
2022/07/17 10:16:53;;;;;;;1.48;0.70;;;19.10;99.90;;;;;;5074469;28;20041;-67
2022/07/17 10:19:21;;;;;;;1.77;0.60;;;19.20;99.90;;;;;;5073574;28;20053;-68
2022/07/17 10:21:59;;;;;;;2.00;0.77;;;19.30;99.90;;;;;;5073841;28;20048;-67
2022/07/17 10:24:27;;;;;;;2.30;0.70;;;19.30;99.90;;;;;;5074455;28;20051;-67
2022/07/17 10:26:53;;;;;;;1.67;0.80;;;19.40;99.90;;;;;;5074038;28;20052;-66
2022/07/17 10:29:32;;;;;;;2.38;0.70;;;19.50;99.90;;;;;;5074852;28;20599;-67
2022/07/17 10:31:59;;;;;;;1.70;0.80;;;19.60;99.90;;;;;;5074312;28;20048;-66
2022/07/17 10:34:46;;;;;;;2.00;0.80;;;19.60;99.90;;;;;;5074220;28;20056;-67
2022/07/17 10:37:26;;;;;;;1.67;0.80;;;19.70;99.90;;;;;;5073988;28;20127;-67
2022/07/17 10:39:55;;;;;;;1.95;1.23;;;19.70;99.90;;;;;;5074687;28;20044;-67
2022/07/17 10:42:56;;;;;;;4.90;0.85;;;19.70;99.90;;;;;;5073093;28;20041;-68
2022/07/17 10:45:27;;;;;;;2.70;0.80;;;19.70;99.90;;;;;;5074032;28;20041;-67
2022/07/17 10:48:16;;;;;;;2.88;0.80;;;19.70;99.90;;;;;;5072824;28;20040;-67
2022/07/17 10:50:42;;;;;;;1.42;0.70;;;19.60;99.90;;;;;;5070582;28;20052;-67
2022/07/17 10:53:11;;;;;;;3.15;1.00;;;19.70;99.90;;;;;;5073838;28;20098;-67
2022/07/17 10:55:41;;;;;;;2.50;0.82;;;19.80;99.90;;;;;;5072485;28;20102;-67
2022/07/17 10:58:26;;;;;;;2.47;0.70;;;19.90;99.90;;;;;;5073716;28;20106;-68
2022/07/17 11:01:00;;;;;;;2.85;0.80;;;19.90;99.90;;;;;;5072474;28;20086;-67
2022/07/17 11:03:27;;;;;;;2.35;0.75;;;20.00;99.90;;;;;;5073720;28;20048;-67
2022/07/17 11:05:53;;;;;;;2.55;0.80;;;20.00;99.90;;;;;;5073733;28;20049;-68
2022/07/17 11:08:18;;;;;;;2.72;0.98;;;20.10;99.90;;;;;;5073684;28;20044;-67
2022/07/17 11:10:46;;;;;;;3.95;0.80;;;20.20;99.90;;;;;;5074067;28;20063;-67
2022/07/17 11:13:14;;;;;;;3.15;0.90;;;20.30;99.90;;;;;;5073988;28;20045;-66
2022/07/17 11:15:43;;;;;;;4.32;0.90;;;20.30;99.90;;;;;;5073514;28;20041;-67
2022/07/17 11:18:11;;;;;;;2.28;0.80;;;20.30;99.90;;;;;;5073965;28;20162;-67
2022/07/17 11:20:47;;;;;;;1.98;1.00;;;20.30;99.90;;;;;;5073213;28;20105;-68
2022/07/17 11:23:13;;;;;;;2.28;0.77;;;20.30;99.90;;;;;;5073456;28;20048;-68
2022/07/17 11:25:39;;;;;;;2.45;0.80;;;20.40;99.90;;;;;;5073448;28;20051;-66
2022/07/17 11:28:04;;;;;;;1.70;0.70;;;20.40;99.90;;;;;;5073392;28;20185;-67
2022/07/17 11:30:30;;;;;;;0.93;0.60;;;20.50;99.90;;;;;;5073376;28;20070;-68
2022/07/17 11:32:57;;;;;;;2.17;0.90;;;20.50;99.90;;;;;;5055539;28;20063;-66
2022/07/17 11:35:23;;;;;;;1.67;0.82;;;20.50;99.90;;;;;;5073249;28;20110;-66
2022/07/17 11:37:50;;;;;;;2.58;0.93;;;20.50;99.90;;;;;;5073254;28;20041;-67
2022/07/17 11:40:16;;;;;;;2.58;0.70;;;20.60;99.90;;;;;;5073716;28;20048;-67
2022/07/17 11:42:43;;;;;;;2.78;0.73;;;20.50;99.90;;;;;;5073113;28;20052;-67
2022/07/17 11:45:09;;;;;;;1.85;0.70;;;20.40;99.90;;;;;;5073585;28;20048;-67
2022/07/17 11:47:35;;;;;;;2.67;0.90;;;20.40;99.90;;;;;;5073159;28;20054;-67
2022/07/17 11:50:09;;;;;;;2.55;0.80;;;20.50;99.90;;;;;;5072765;28;20523;-67
2022/07/17 11:52:48;;;;;;;2.40;0.80;;;20.60;99.90;;;;;;5073669;28;20084;-67
2022/07/17 11:55:14;;;;;;;2.03;0.70;;;20.60;99.90;;;;;;5073633;28;20044;-67
2022/07/17 11:57:49;;;;;;;2.08;0.80;;;20.60;99.90;;;;;;5073498;28;20084;-68
2022/07/17 12:00:17;;;;;;;2.13;0.95;;;20.60;99.90;;;;;;5072860;28;20056;-67
2022/07/17 12:02:43;;;;;;;1.88;0.80;;;20.60;99.90;;;;;;5071990;28;20049;-67
2022/07/17 12:05:10;;;;;;;1.67;0.70;;;20.80;99.90;;;;;;5073406;28;20094;-67
2022/07/17 12:07:46;;;;;;;3.63;1.17;;;20.80;99.90;;;;;;5077245;28;20114;-67
2022/07/17 12:10:13;;;;;;;1.90;0.77;;;20.90;99.90;;;;;;5077890;28;20059;-67
2022/07/17 12:12:40;;;;;;;1.92;0.90;;;21.00;99.90;;;;;;5076964;28;20440;-68
2022/07/17 12:15:06;;;;;;;2.10;0.80;;;21.00;99.90;;;;;;5076965;28;20050;-68
2022/07/17 12:17:39;;;;;;;2.53;0.85;;;21.10;99.90;;;;;;5076789;28;20116;-67
2022/07/17 12:20:07;;;;;;;1.88;0.90;;;21.10;99.90;;;;;;5076844;28;20091;-66
2022/07/17 12:22:47;;;;;;;3.47;0.88;;;21.10;99.90;;;;;;5075937;28;20448;-67
2022/07/17 12:25:27;;;;;;;2.22;0.98;;;21.10;99.90;;;;;;5076768;28;20055;-67
2022/07/17 12:27:54;;;;;;;1.75;0.70;;;21.10;99.90;;;;;;5077489;28;20048;-66
2022/07/17 12:30:20;;;;;;;2.63;0.88;;;21.10;99.90;;;;;;5076671;28;20086;-67
2022/07/17 12:32:47;;;;;;;1.48;0.60;;;21.20;99.90;;;;;;5076779;28;20128;-66
2022/07/17 12:35:14;;;;;;;2.35;0.82;;;21.20;99.90;;;;;;5076484;28;20052;-67
2022/07/17 12:37:40;;;;;;;2.25;0.77;;;21.30;99.90;;;;;;5076325;28;20429;-66
2022/07/17 12:40:07;;;;;;;2.30;0.90;;;21.30;99.90;;;;;;5076522;28;20060;-67
2022/07/17 12:42:33;;;;;;;2.65;0.80;;;21.30;99.90;;;;;;5076806;28;20128;-67
2022/07/17 12:44:58;;;;;;;1.88;0.93;;;21.30;99.90;;;;;;5076356;28;20195;-67
2022/07/17 12:47:24;;;;;;;2.92;0.90;;;21.30;99.90;;;;;;5076848;28;20450;-67
2022/07/17 12:49:50;;;;;;;3.55;1.02;;;21.30;99.90;;;;;;5076768;28;20354;-67
2022/07/17 12:52:15;;;;;;;2.85;0.95;;;21.40;99.90;;;;;;5075223;28;20048;-67